Genie — WDF8288 — position and weather

sailwx.info

Track history (hours):
 
Tides and Currents Weather Stations Pressure Air Temp Water Temp Dewpoint Dewpoint Depression Visibility Wind Speed Wind Dir Waves Ship Positions

Genie

Owner: Enterprise Marine Services, LLC, San Antonio, TX. More information available from US FCC via Universal Licensing System and Coast Guard Vessel Documentation Center.

Last reported at 2018-Jun-17 20:16 UTC. Time now 2018-Jun-25 00:17 UTC.
Position N 32°43' W 091°03'.

Length 34 m; draft 2.9 m.

Type: . MMSI: 367407750.

Date/timePositionNaut miles runAvg speedWind from/ knotsBaromVisibWave heightAir tempDewpointWater temp
2018-Jun-17 20:16N 32°43' W 091°03'1 5.6
2018-Jun-17 20:00N 32°42' W 091°04'3 4.8
2018-Jun-17 19:28N 32°40' W 091°06'3 4.7
2018-Jun-17 18:48N 32°38' W 091°09'2 6.1
2018-Jun-17 18:30N 32°37' W 091°09'2 3.1
2018-Jun-17 18:00N 32°35' W 091°08'3 5.1
2018-Jun-17 17:30N 32°33' W 091°06'3 5.4
2018-Jun-17 17:00N 32°31' W 091°07'3 5.4
2018-Jun-17 16:30N 32°28' W 091°06'3 5.5
2018-Jun-17 16:00N 32°26' W 091°03'3 5.3
2018-Jun-17 15:30N 32°25' W 091°01'2 4.3
2018-Jun-17 15:00N 32°23' W 090°60'2 4.5
2018-Jun-17 14:30N 32°21' W 090°60'3 5.1
2018-Jun-17 14:00N 32°21' W 090°57'2 5.0
2018-Jun-17 13:30N 32°20' W 090°54'2 5.0
2018-Jun-17 13:00N 32°18' W 090°56'3 5.1
2018-Jun-17 12:30N 32°16' W 090°58'2 4.8
2018-Jun-17 12:00N 32°14' W 090°59'3 5.5
2018-Jun-17 11:30N 32°11' W 090°60'2 4.9
2018-Jun-17 11:00N 32°09' W 091°00'2 4.7
2018-Jun-17 10:30N 32°07' W 091°03'2 3.9
2018-Jun-17 09:54N 32°08' W 091°05'2 3.9
2018-Jun-17 09:31N 32°07' W 091°06'3 1.0
2018-Jun-17 06:25N 32°04' W 091°04'3 4.7
2018-Jun-17 05:52N 32°02' W 091°04'4 5.2
2018-Jun-17 05:11N 31°59' W 091°07'4 4.7
2018-Jun-17 04:18N 31°58' W 091°11'  
2018-Jun-14 01:00N 29°57' W 090°23'39 2.2
2018-Jun-13 07:35N 30°13' W 091°04'5 9.4
2018-Jun-13 07:06N 30°11' W 091°09'6 5.4
2018-Jun-13 05:58N 30°17' W 091°09'15 4.3
2018-Jun-13 02:33N 30°31' W 091°13'0 7.2
2018-Jun-13 02:30N 30°31' W 091°13'89 2.6
2018-Jun-11 16:44N 31°60' W 091°05'3 9.6
2018-Jun-11 16:23N 32°03' W 091°03'4 8.5
2018-Jun-11 15:55N 32°06' W 091°06'3 5.6
2018-Jun-11 15:28N 32°08' W 091°04'3 7.5
2018-Jun-11 15:00N 32°09' W 091°00'5 9.2
2018-Jun-11 14:30N 32°14' W 090°59'4 8.8
2018-Jun-11 14:00N 32°18' W 090°56'3 6.5
2018-Jun-11 13:30N 32°21' W 090°55'4 8.7
2018-Jun-11 13:01N 32°22' W 091°00'4 7.9
2018-Jun-11 12:30N 32°26' W 091°01'5 9.3
2018-Jun-11 12:00N 32°28' W 091°06'4 8.7
2018-Jun-11 11:29N 32°32' W 091°06'  
Track history (hours):
 
Tides and Currents Weather Stations Pressure Air Temp Water Temp Dewpoint Dewpoint Depression Visibility Wind Speed Wind Dir Waves Ship Positions

Genie

Owner: Enterprise Marine Services, LLC, San Antonio, TX. More information available from US FCC via Universal Licensing System and Coast Guard Vessel Documentation Center.

Last reported at 2018-Jun-17 20:16 UTC. Time now 2018-Jun-25 00:17 UTC.
Position N 32°43' W 091°03'.

Length 34 m; draft 2.9 m.

Type: . MMSI: 367407750.

Date/timePositionNaut miles runAvg speedWind from/ knotsBaromVisibWave heightAir tempDewpointWater temp
2018-Jun-17 20:16N 32°43' W 091°03'1 5.6
2018-Jun-17 20:00N 32°42' W 091°04'3 4.8
2018-Jun-17 19:28N 32°40' W 091°06'3 4.7
2018-Jun-17 18:48N 32°38' W 091°09'2 6.1
2018-Jun-17 18:30N 32°37' W 091°09'2 3.1
2018-Jun-17 18:00N 32°35' W 091°08'3 5.1
2018-Jun-17 17:30N 32°33' W 091°06'3 5.4
2018-Jun-17 17:00N 32°31' W 091°07'3 5.4
2018-Jun-17 16:30N 32°28' W 091°06'3 5.5
2018-Jun-17 16:00N 32°26' W 091°03'3 5.3
2018-Jun-17 15:30N 32°25' W 091°01'2 4.3
2018-Jun-17 15:00N 32°23' W 090°60'2 4.5
2018-Jun-17 14:30N 32°21' W 090°60'3 5.1
2018-Jun-17 14:00N 32°21' W 090°57'2 5.0
2018-Jun-17 13:30N 32°20' W 090°54'2 5.0
2018-Jun-17 13:00N 32°18' W 090°56'3 5.1
2018-Jun-17 12:30N 32°16' W 090°58'2 4.8
2018-Jun-17 12:00N 32°14' W 090°59'3 5.5
2018-Jun-17 11:30N 32°11' W 090°60'2 4.9
2018-Jun-17 11:00N 32°09' W 091°00'2 4.7
2018-Jun-17 10:30N 32°07' W 091°03'2 3.9
2018-Jun-17 09:54N 32°08' W 091°05'2 3.9
2018-Jun-17 09:31N 32°07' W 091°06'3 1.0
2018-Jun-17 06:25N 32°04' W 091°04'3 4.7
2018-Jun-17 05:52N 32°02' W 091°04'4 5.2
2018-Jun-17 05:11N 31°59' W 091°07'4 4.7
2018-Jun-17 04:18N 31°58' W 091°11'  
2018-Jun-14 01:00N 29°57' W 090°23'39 2.2
2018-Jun-13 07:35N 30°13' W 091°04'5 9.4
2018-Jun-13 07:06N 30°11' W 091°09'6 5.4
2018-Jun-13 05:58N 30°17' W 091°09'15 4.3
2018-Jun-13 02:33N 30°31' W 091°13'0 7.2
2018-Jun-13 02:30N 30°31' W 091°13'89 2.6
2018-Jun-11 16:44N 31°60' W 091°05'3 9.6
2018-Jun-11 16:23N 32°03' W 091°03'4 8.5
2018-Jun-11 15:55N 32°06' W 091°06'3 5.6
2018-Jun-11 15:28N 32°08' W 091°04'3 7.5
2018-Jun-11 15:00N 32°09' W 091°00'5 9.2
2018-Jun-11 14:30N 32°14' W 090°59'4 8.8
2018-Jun-11 14:00N 32°18' W 090°56'3 6.5
2018-Jun-11 13:30N 32°21' W 090°55'4 8.7
2018-Jun-11 13:01N 32°22' W 091°00'4 7.9
2018-Jun-11 12:30N 32°26' W 091°01'5 9.3
2018-Jun-11 12:00N 32°28' W 091°06'4 8.7
2018-Jun-11 11:29N 32°32' W 091°06'  

Dump ship's entire track history